• Join FlightAware (Why Join?)
  • Login
  • US Flag 
07:13AM EDT


 

Airport Tracker/Info


-or-


 

Live Flight TrackerFlight Track Log ✈ SWA385 ✈ 10-Jul-2013 ✈ KIAD - KMDW

Flight Track Log - Related Links

Times and Time Zones

All times are in EDT time to prevent confusion due to time zone crossing. See the SWA385 flight status page for this flight to view local times or setup timezone preferences in your user account.

Time Position Orientation Groundspeed Altitude Reporting Facility
EDT Latitude Longitude Course Direction KTS MPH feet Rate Location/Type
05:16PM 38.9167 -77.4333 180° South 168 193 1,300  Level Potomac TRACON
05:17PM 38.8667 -77.4333 180° South 214 246 3,700 2,640 Climbing Potomac TRACON
05:19PM 38.7728 -77.6472 241° Southwest 274 315 10,700 2,700 Climbing Washington Center
05:20PM 38.7708 -77.7644 269° West 314 361 13,200 2,760 Climbing Washington Center
05:21PM 38.7936 -77.8875 283° West 329 379 16,300 2,520 Climbing Washington Center
05:22PM 38.8144 -77.9894 285° West 341 392 18,400 2,100 Climbing Washington Center
05:23PM 38.8386 -78.1314 282° West 363 418 20,600 2,100 Climbing Washington Center
05:24PM 38.8544 -78.2706 278° West 379 436 22,700 2,100 Climbing Washington Center
05:25PM 38.8531 -78.4144 269° West 396 456 24,800 1,980 Climbing Washington Center
05:26PM 38.8497 -78.5611 268° West 408 470 26,600 1,560 Climbing Washington Center
05:27PM 38.8478 -78.7131 269° West 415 478 28,000 1,320 Climbing Washington Center
05:28PM 38.8458 -78.8675 269° West 429 494 29,400 1,440 Climbing Washington Center
05:29PM 38.8456 -79.0275 270° West 440 506 30,900 1,560 Climbing Washington Center
05:30PM 38.8389 -79.1842 267° West 440 506 32,500 1,560 Climbing Washington Center
05:31PM 38.8383 -79.3417 270° West 440 506 34,100 1,560 Climbing Washington Center
05:32PM 38.8356 -79.4961 269° West 440 506 35,700 1,620 Climbing Washington Center
05:33PM 38.8339 -79.6692 269° West 440 506 37,400 1,140 Climbing Washington Center
05:34PM 38.8314 -79.8050 269° West 439 505 38,100 420 Climbing Washington Center
05:35PM 38.8244 -79.9136 265° West 416 479 38,100  Level Indianapolis Center
05:36PM 38.8203 -80.0614 268° West 415 478 38,100  Level Indianapolis Center
05:37PM 38.8172 -80.2097 269° West 416 479 38,100  Level Indianapolis Center
05:38PM 38.7997 -80.3564 261° West 420 483 38,100  Level Indianapolis Center
05:39PM 38.7667 -80.5031 254° West 426 490 38,100  Level Indianapolis Center
05:40PM 38.7339 -80.6481 254° West 425 489 38,100  Level Indianapolis Center
05:41PM 38.6975 -80.7928 252° West 427 491 38,100  Level Indianapolis Center
05:42PM 38.6633 -80.9367 253° West 422 486 38,100  Level Indianapolis Center
05:43PM 38.6294 -81.0797 253° West 419 482 38,100  Level Indianapolis Center
05:44PM 38.5972 -81.2214 254° West 415 478 38,100  Level Indianapolis Center
05:45PM 38.5606 -81.3911 255° West 414 476 38,100  Level Indianapolis Center
05:46PM 38.5339 -81.5133 254° West 423 487 38,100  Level Indianapolis Center
05:47PM 38.5058 -81.6606 256° West 420 483 38,100  Level Indianapolis Center
05:48PM 38.4753 -81.8067 255° West 422 486 38,100  Level Indianapolis Center
05:49PM 38.4386 -81.9800 255° West 421 484 38,100  Level Indianapolis Center
05:50PM 38.3908 -82.1167 246° West 422 486 38,100  Level Indianapolis Center
05:51PM 38.3461 -82.2528 247° West 418 481 38,100  Level Indianapolis Center
05:52PM 38.3217 -82.3992 258° West 421 484 38,100  Level Indianapolis Center
05:54PM 38.2911 -82.5558 256° West 420 483 38,100  Level Indianapolis Center
05:55PM 38.2636 -82.7008 256° West 422 486 38,100  Level Indianapolis Center
05:57PM 38.2114 -82.9858 257° West 415 478 38,100  Level Indianapolis Center
05:58PM 38.1858 -83.1297 257° West 416 479 38,100  Level Indianapolis Center
05:59PM 38.1606 -83.2739 257° West 419 482 38,100  Level Indianapolis Center
06:00PM 38.1378 -83.4192 259° West 420 483 38,100  Level Indianapolis Center
06:01PM 38.1114 -83.5906 259° West 424 488 38,100  Level Indianapolis Center
06:02PM 38.0889 -83.7369 259° West 424 488 38,100  Level Indianapolis Center
06:03PM 38.0992 -83.8853 275° West 424 488 38,100 -60 Level Indianapolis Center
06:04PM 38.1119 -84.0367 276° West 430 495 38,000  Descending Indianapolis Center
06:05PM 38.1244 -84.1908 276° West 438 504 38,100  Climbing Indianapolis Center
06:06PM 38.1358 -84.3469 275° West 442 509 38,100  Level Indianapolis Center
06:07PM 38.1481 -84.5019 276° West 442 509 38,100  Level Indianapolis Center
06:08PM 38.1600 -84.6553 276° West 438 504 38,100  Level Indianapolis Center
06:09PM 38.1744 -84.8336 276° West 434 499 38,100  Level Indianapolis Center
06:10PM 38.2475 -84.9553 307° West 452 520 38,100  Level Indianapolis Center
06:11PM 38.3681 -85.0169 338° Northwest 462 532 38,100 -840 Level Indianapolis Center
06:12PM 38.4894 -85.0725 340° North 463 533 36,500 -1,500 Descending Indianapolis Center
06:13PM 38.6119 -85.1297 340° North 467 537 35,100 -720 Descending Indianapolis Center
06:14PM 38.7300 -85.1864 339° North 471 542 35,100 -60 Level Indianapolis Center
06:15PM 38.8519 -85.2439 340° North 472 543 35,000 -60 Descending Indianapolis Center
06:16PM 38.9747 -85.3014 340° North 470 541 35,000 -300 Level Indianapolis Center
06:17PM 39.1211 -85.3719 340° North 470 541 34,500 -720 Descending Indianapolis Center
06:18PM 39.2400 -85.4275 340° North 461 531 33,600 -1,140 Descending Indianapolis Center
06:19PM 39.3525 -85.4831 339° North 442 509 32,200 -1,440 Descending Indianapolis Center
06:20PM 39.4642 -85.5364 340° North 433 498 30,700 -1,260 Descending Indianapolis Center
06:21PM 39.5722 -85.5883 340° North 421 484 29,700 -960 Descending Indianapolis Center
06:22PM 39.6878 -85.6442 340° North 439 505 28,800 -960 Descending Indianapolis Center
06:23PM 39.8036 -85.6997 340° North 448 516 27,800 -1,260 Descending Indianapolis Center
06:24PM 39.9364 -85.7650 339° North 433 498 26,300 -1,800 Descending Indianapolis Center
06:25PM 40.0419 -85.8169 339° North 415 478 24,200 -1,140 Descending Indianapolis Center
06:26PM 40.1472 -85.8689 339° North 410 472 24,000 -120 Descending Indianapolis Center
06:27PM 40.2142 -85.8997 341° North 424 488 24,000 -300 Level Chicago Center
06:28PM 40.3256 -85.9633 336° Northwest 437 503 23,500 -840 Descending Chicago Center
06:29PM 40.4522 -86.0450 334° Northwest 427 491 22,300 -780 Descending Chicago Center
06:30PM 40.5558 -86.1117 334° Northwest 420 483 22,000 -900 Descending Chicago Center
06:31PM 40.6578 -86.1783 334° Northwest 413 475 20,500 -1,980 Descending Chicago Center
06:32PM 40.7586 -86.2433 334° Northwest 386 444 18,000 -2,340 Descending Chicago Center
06:33PM 40.8497 -86.3042 333° Northwest 368 423 15,700 -2,220 Descending Chicago Center
06:34PM 40.9375 -86.3600 334° Northwest 353 406 13,500 -2,040 Descending Chicago Center
06:35PM 41.0231 -86.4175 333° Northwest 346 398 11,500 -1,260 Descending Chicago Center
06:36PM 41.0892 -86.4964 318° Northwest 328 377 10,900 -780 Descending Chicago Center
06:37PM 41.1558 -86.5989 311° West 310 357 10,000 -480 Descending Chicago Center
06:38PM 41.2028 -86.6697 311° West 266 306 10,000  Level Chicago Center
06:39PM 41.2497 -86.7406 311° West 260 299 10,000  Level Chicago Center
06:40PM 41.2944 -86.8122 310° West 257 296 10,000  Level Chicago Center
06:41PM 41.3494 -86.8992 310° West 257 296 10,000 -300 Level Chicago Center
06:42PM 41.3969 -86.9717 311° West 261 300 9,400 -960 Descending Chicago Center
06:43PM 41.4408 -87.0433 309° West 255 293 8,100 -1,500 Descending Chicago Center
06:44PM 41.4878 -87.1156 311° West 257 296 6,400 -1,020 Descending Chicago Center
06:46PM 41.5203 -87.1986 298° West 261 300 6,000 -240 Descending Chicago Center
06:47PM 41.5142 -87.3103 266° West 256 295 6,000 -600 Level Chicago Center
06:48PM 41.5294 -87.4008 283° West 256 295 4,800 -1,020 Descending Chicago Center
06:49PM 41.5481 -87.4914 285° West 255 293 4,000 -420 Descending Chicago Center
06:50PM 41.5656 -87.5814 285° West 254 292 4,000 -420 Level Chicago Center
06:51PM 41.5792 -87.6739 281° West 256 295 3,200 -780 Descending Chicago Center
06:52PM 41.5914 -87.7856 278° West 257 296 2,500 -360 Descending Chicago Center
06:53PM 41.6269 -87.8511 306° West 233 268 2,500  Level Chicago Center
06:54PM 41.6817 -87.8511 360° North 221 254 2,500 -300 Level Chicago Center
06:55PM 41.7319 -87.8219 23° Northeast 216 249 1,900 -660 Descending Chicago Center
06:56PM 41.7614 -87.7833 44° Northeast 172 198 1,200 -480 Descending Chicago Center
06:57PM 41.7925 -87.7431 44° Northeast 159 183 1,000 -240 Descending Chicago Center